sensor_id;sensor_type;location;lat;lon;timestamp;pressure;altitude;pressure_sealevel;temperature;humidity
36192;BME280;22233;42.708;23.360;2023-02-08T00:01:50;96972.44;;;-3.77;63.19
36192;BME280;22233;42.708;23.360;2023-02-08T00:04:15;96961.19;;;-3.79;64.70
36192;BME280;22233;42.708;23.360;2023-02-08T00:06:41;96973.09;;;-3.75;64.10
36192;BME280;22233;42.708;23.360;2023-02-08T00:09:06;96980.75;;;-4.25;65.96
36192;BME280;22233;42.708;23.360;2023-02-08T00:11:33;96979.94;;;-3.81;63.80
36192;BME280;22233;42.708;23.360;2023-02-08T00:13:58;96973.94;;;-4.04;66.17
36192;BME280;22233;42.708;23.360;2023-02-08T00:16:23;96979.13;;;-3.81;63.74
36192;BME280;22233;42.708;23.360;2023-02-08T00:18:49;96984.44;;;-3.51;63.63
36192;BME280;22233;42.708;23.360;2023-02-08T00:21:16;96997.97;;;-3.46;62.16
36192;BME280;22233;42.708;23.360;2023-02-08T00:23:42;97001.56;;;-3.69;64.09
36192;BME280;22233;42.708;23.360;2023-02-08T00:26:07;96976.88;;;-3.33;62.90
36192;BME280;22233;42.708;23.360;2023-02-08T00:28:33;96999.91;;;-3.40;62.44
36192;BME280;22233;42.708;23.360;2023-02-08T00:30:59;96999.66;;;-3.60;65.59
36192;BME280;22233;42.708;23.360;2023-02-08T00:33:24;96986.50;;;-3.32;62.42
36192;BME280;22233;42.708;23.360;2023-02-08T00:35:49;96998.25;;;-3.71;63.36
36192;BME280;22233;42.708;23.360;2023-02-08T00:38:15;97007.88;;;-3.40;63.73
36192;BME280;22233;42.708;23.360;2023-02-08T00:40:40;97016.69;;;-3.18;62.18
36192;BME280;22233;42.708;23.360;2023-02-08T00:43:06;97022.34;;;-3.28;62.35
36192;BME280;22233;42.708;23.360;2023-02-08T00:45:32;97008.75;;;-3.33;63.22
36192;BME280;22233;42.708;23.360;2023-02-08T00:47:57;97006.97;;;-3.47;63.71
36192;BME280;22233;42.708;23.360;2023-02-08T00:50:23;97004.31;;;-3.11;62.86
36192;BME280;22233;42.708;23.360;2023-02-08T00:52:48;97014.41;;;-2.85;61.58
36192;BME280;22233;42.708;23.360;2023-02-08T00:55:14;97020.63;;;-2.99;62.72
36192;BME280;22233;42.708;23.360;2023-02-08T00:57:39;97020.31;;;-3.26;63.85
36192;BME280;22233;42.708;23.360;2023-02-08T01:00:05;97015.03;;;-3.55;65.67
36192;BME280;22233;42.708;23.360;2023-02-08T01:02:31;97014.19;;;-3.41;65.44
36192;BME280;22233;42.708;23.360;2023-02-08T01:04:56;97024.91;;;-2.98;63.28
36192;BME280;22233;42.708;23.360;2023-02-08T01:07:22;97008.19;;;-2.92;62.53
36192;BME280;22233;42.708;23.360;2023-02-08T01:09:47;97019.41;;;-3.33;64.13
36192;BME280;22233;42.708;23.360;2023-02-08T01:12:12;97032.28;;;-3.15;64.21
36192;BME280;22233;42.708;23.360;2023-02-08T01:14:38;97021.13;;;-2.89;63.06
36192;BME280;22233;42.708;23.360;2023-02-08T01:17:04;97027.88;;;-3.08;63.18
36192;BME280;22233;42.708;23.360;2023-02-08T01:19:29;97002.56;;;-3.40;64.29
36192;BME280;22233;42.708;23.360;2023-02-08T01:21:55;97022.78;;;-2.88;63.13
36192;BME280;22233;42.708;23.360;2023-02-08T01:24:20;97002.34;;;-3.38;65.56
36192;BME280;22233;42.708;23.360;2023-02-08T01:26:46;97000.31;;;-3.22;63.69
36192;BME280;22233;42.708;23.360;2023-02-08T01:29:11;97013.22;;;-3.04;63.43
36192;BME280;22233;42.708;23.360;2023-02-08T01:31:39;97001.09;;;-3.06;64.07
36192;BME280;22233;42.708;23.360;2023-02-08T01:34:05;97015.47;;;-3.37;66.82
36192;BME280;22233;42.708;23.360;2023-02-08T01:36:31;97022.47;;;-3.14;63.54
36192;BME280;22233;42.708;23.360;2023-02-08T01:38:57;97021.31;;;-2.90;62.76
36192;BME280;22233;42.708;23.360;2023-02-08T01:41:26;97031.00;;;-2.83;62.97
36192;BME280;22233;42.708;23.360;2023-02-08T01:46:43;97008.97;;;-2.76;62.25
36192;BME280;22233;42.708;23.360;2023-02-08T01:49:14;97030.44;;;-3.14;64.11
36192;BME280;22233;42.708;23.360;2023-02-08T01:51:46;97030.66;;;-2.79;63.21
36192;BME280;22233;42.708;23.360;2023-02-08T01:54:13;97032.03;;;-2.62;62.29
36192;BME280;22233;42.708;23.360;2023-02-08T01:56:42;97032.94;;;-2.55;62.79
36192;BME280;22233;42.708;23.360;2023-02-08T01:59:15;97021.38;;;-2.62;63.17
36192;BME280;22233;42.708;23.360;2023-02-08T02:01:45;97038.31;;;-2.48;62.62
36192;BME280;22233;42.708;23.360;2023-02-08T02:04:13;97028.25;;;-2.53;62.42
36192;BME280;22233;42.708;23.360;2023-02-08T02:06:42;97034.88;;;-2.64;62.19
36192;BME280;22233;42.708;23.360;2023-02-08T02:09:17;97045.03;;;-2.31;61.83
36192;BME280;22233;42.708;23.360;2023-02-08T02:11:44;97026.84;;;-2.49;62.07
36192;BME280;22233;42.708;23.360;2023-02-08T02:14:10;97047.50;;;-2.51;62.35
36192;BME280;22233;42.708;23.360;2023-02-08T02:16:36;97050.09;;;-2.57;62.87
36192;BME280;22233;42.708;23.360;2023-02-08T02:19:03;97056.69;;;-2.53;62.82
36192;BME280;22233;42.708;23.360;2023-02-08T02:21:48;97034.00;;;-2.71;62.22
36192;BME280;22233;42.708;23.360;2023-02-08T02:27:08;97061.38;;;-2.55;62.48
36192;BME280;22233;42.708;23.360;2023-02-08T02:32:41;97061.47;;;-2.64;61.31
36192;BME280;22233;42.708;23.360;2023-02-08T02:38:05;97080.81;;;-2.55;62.27
36192;BME280;22233;42.708;23.360;2023-02-08T02:46:07;97065.97;;;-2.64;61.92
36192;BME280;22233;42.708;23.360;2023-02-08T02:51:20;97069.91;;;-2.60;62.37
36192;BME280;22233;42.708;23.360;2023-02-08T02:54:12;97079.81;;;-2.75;62.18
36192;BME280;22233;42.708;23.360;2023-02-08T02:56:40;97087.00;;;-3.21;63.22
36192;BME280;22233;42.708;23.360;2023-02-08T02:59:09;97062.75;;;-3.17;63.02
36192;BME280;22233;42.708;23.360;2023-02-08T03:01:36;97070.53;;;-3.31;63.31
36192;BME280;22233;42.708;23.360;2023-02-08T03:12:04;97095.00;;;-3.65;64.62
36192;BME280;22233;42.708;23.360;2023-02-08T03:20:32;97064.13;;;-4.19;66.44
36192;BME280;22233;42.708;23.360;2023-02-08T03:23:15;97086.66;;;-4.15;66.29
36192;BME280;22233;42.708;23.360;2023-02-08T03:28:34;97082.25;;;-4.69;70.10
36192;BME280;22233;42.708;23.360;2023-02-08T03:31:55;97076.00;;;-4.76;70.43
36192;BME280;22233;42.708;23.360;2023-02-08T03:37:12;97082.28;;;-4.77;69.27
36192;BME280;22233;42.708;23.360;2023-02-08T03:39:39;97073.25;;;-4.36;68.14
36192;BME280;22233;42.708;23.360;2023-02-08T03:42:14;97072.53;;;-4.76;68.33
36192;BME280;22233;42.708;23.360;2023-02-08T03:44:47;97089.31;;;-4.61;69.21
36192;BME280;22233;42.708;23.360;2023-02-08T03:47:21;97089.78;;;-4.80;68.56
36192;BME280;22233;42.708;23.360;2023-02-08T03:49:51;97080.59;;;-4.47;68.49
36192;BME280;22233;42.708;23.360;2023-02-08T03:52:18;97071.06;;;-4.56;68.20
36192;BME280;22233;42.708;23.360;2023-02-08T03:55:23;97084.88;;;-4.60;69.00
36192;BME280;22233;42.708;23.360;2023-02-08T03:58:21;97088.84;;;-4.42;66.76
36192;BME280;22233;42.708;23.360;2023-02-08T04:00:56;97101.41;;;-4.35;66.71
36192;BME280;22233;42.708;23.360;2023-02-08T04:03:27;97091.47;;;-3.95;65.52
36192;BME280;22233;42.708;23.360;2023-02-08T04:05:54;97095.16;;;-4.19;65.10
36192;BME280;22233;42.708;23.360;2023-02-08T04:08:20;97093.09;;;-3.94;64.28
36192;BME280;22233;42.708;23.360;2023-02-08T04:10:46;97088.50;;;-4.01;63.94
36192;BME280;22233;42.708;23.360;2023-02-08T04:13:11;97105.69;;;-3.88;64.14
36192;BME280;22233;42.708;23.360;2023-02-08T04:15:37;97106.25;;;-3.78;63.86
36192;BME280;22233;42.708;23.360;2023-02-08T04:18:02;97104.03;;;-3.74;63.17
36192;BME280;22233;42.708;23.360;2023-02-08T04:20:28;97104.06;;;-3.59;63.09
36192;BME280;22233;42.708;23.360;2023-02-08T04:22:53;97109.00;;;-3.56;62.22
36192;BME280;22233;42.708;23.360;2023-02-08T04:25:18;97109.56;;;-3.61;61.73
36192;BME280;22233;42.708;23.360;2023-02-08T04:27:44;97111.22;;;-3.60;62.08
36192;BME280;22233;42.708;23.360;2023-02-08T04:30:10;97107.19;;;-3.56;61.31
36192;BME280;22233;42.708;23.360;2023-02-08T04:32:36;97107.53;;;-3.59;61.78
36192;BME280;22233;42.708;23.360;2023-02-08T04:35:01;97105.31;;;-3.85;62.04
36192;BME280;22233;42.708;23.360;2023-02-08T04:37:27;97108.13;;;-4.25;62.99
36192;BME280;22233;42.708;23.360;2023-02-08T04:39:52;97087.53;;;-3.99;63.04
36192;BME280;22233;42.708;23.360;2023-02-08T04:42:18;97106.91;;;-4.14;62.90
36192;BME280;22233;42.708;23.360;2023-02-08T04:44:43;97085.72;;;-4.22;62.96
36192;BME280;22233;42.708;23.360;2023-02-08T04:47:08;97113.91;;;-3.98;62.87
36192;BME280;22233;42.708;23.360;2023-02-08T04:49:34;97094.50;;;-4.22;63.39
36192;BME280;22233;42.708;23.360;2023-02-08T04:51:59;97114.25;;;-4.01;62.34
36192;BME280;22233;42.708;23.360;2023-02-08T04:54:25;97118.31;;;-3.90;62.40
36192;BME280;22233;42.708;23.360;2023-02-08T04:56:50;97139.09;;;-3.79;62.36
36192;BME280;22233;42.708;23.360;2023-02-08T04:59:16;97129.13;;;-3.77;62.30
36192;BME280;22233;42.708;23.360;2023-02-08T05:01:43;97142.53;;;-3.55;61.91
36192;BME280;22233;42.708;23.360;2023-02-08T05:04:08;97158.44;;;-3.70;61.71
36192;BME280;22233;42.708;23.360;2023-02-08T05:06:33;97155.09;;;-4.02;62.21
36192;BME280;22233;42.708;23.360;2023-02-08T05:08:59;97168.31;;;-3.79;61.88
36192;BME280;22233;42.708;23.360;2023-02-08T05:11:25;97150.38;;;-3.77;61.51
36192;BME280;22233;42.708;23.360;2023-02-08T05:13:51;97163.31;;;-3.59;61.49
36192;BME280;22233;42.708;23.360;2023-02-08T05:16:17;97156.50;;;-3.76;61.47
36192;BME280;22233;42.708;23.360;2023-02-08T05:18:43;97187.41;;;-4.53;64.44
36192;BME280;22233;42.708;23.360;2023-02-08T05:21:08;97168.31;;;-4.48;64.42
36192;BME280;22233;42.708;23.360;2023-02-08T05:23:34;97170.28;;;-4.19;63.70
36192;BME280;22233;42.708;23.360;2023-02-08T05:25:59;97147.56;;;-3.98;62.76
36192;BME280;22233;42.708;23.360;2023-02-08T05:28:29;97174.28;;;-4.23;63.32
36192;BME280;22233;42.708;23.360;2023-02-08T05:30:54;97166.38;;;-3.85;62.45
36192;BME280;22233;42.708;23.360;2023-02-08T05:33:20;97171.03;;;-3.87;62.75
36192;BME280;22233;42.708;23.360;2023-02-08T05:35:45;97178.31;;;-4.04;62.79
36192;BME280;22233;42.708;23.360;2023-02-08T05:38:10;97161.78;;;-3.91;62.46
36192;BME280;22233;42.708;23.360;2023-02-08T05:40:36;97186.84;;;-3.71;61.95
36192;BME280;22233;42.708;23.360;2023-02-08T05:43:01;97174.53;;;-3.87;61.99
36192;BME280;22233;42.708;23.360;2023-02-08T05:45:27;97192.28;;;-3.87;62.70
36192;BME280;22233;42.708;23.360;2023-02-08T05:47:52;97172.19;;;-3.67;61.62
36192;BME280;22233;42.708;23.360;2023-02-08T05:50:18;97174.81;;;-3.82;62.04
36192;BME280;22233;42.708;23.360;2023-02-08T05:52:43;97188.38;;;-3.76;61.97
36192;BME280;22233;42.708;23.360;2023-02-08T05:55:08;97187.94;;;-3.80;61.93
36192;BME280;22233;42.708;23.360;2023-02-08T05:57:34;97173.84;;;-4.58;63.35
36192;BME280;22233;42.708;23.360;2023-02-08T05:59:59;97167.47;;;-4.17;62.63
36192;BME280;22233;42.708;23.360;2023-02-08T06:02:25;97184.16;;;-3.86;62.02
36192;BME280;22233;42.708;23.360;2023-02-08T06:04:50;97171.47;;;-3.61;61.02
36192;BME280;22233;42.708;23.360;2023-02-08T06:07:16;97197.69;;;-3.57;61.23
36192;BME280;22233;42.708;23.360;2023-02-08T06:09:41;97179.34;;;-3.52;61.14
36192;BME280;22233;42.708;23.360;2023-02-08T06:12:07;97194.56;;;-3.46;60.67
36192;BME280;22233;42.708;23.360;2023-02-08T06:14:32;97191.94;;;-3.84;62.48
36192;BME280;22233;42.708;23.360;2023-02-08T06:16:58;97175.84;;;-4.06;61.75
36192;BME280;22233;42.708;23.360;2023-02-08T06:19:24;97196.75;;;-3.65;61.45
36192;BME280;22233;42.708;23.360;2023-02-08T06:21:49;97188.91;;;-3.58;60.99
36192;BME280;22233;42.708;23.360;2023-02-08T06:24:15;97207.81;;;-3.23;60.51
36192;BME280;22233;42.708;23.360;2023-02-08T06:26:41;97211.03;;;-3.13;60.05
36192;BME280;22233;42.708;23.360;2023-02-08T06:29:06;97188.97;;;-3.13;60.45
36192;BME280;22233;42.708;23.360;2023-02-08T06:31:32;97216.94;;;-2.88;59.85
36192;BME280;22233;42.708;23.360;2023-02-08T06:33:57;97219.13;;;-2.76;59.56
36192;BME280;22233;42.708;23.360;2023-02-08T06:36:23;97221.78;;;-2.91;59.31
36192;BME280;22233;42.708;23.360;2023-02-08T06:38:48;97217.72;;;-3.02;59.44
36192;BME280;22233;42.708;23.360;2023-02-08T06:41:13;97221.50;;;-3.11;59.32
36192;BME280;22233;42.708;23.360;2023-02-08T06:43:39;97222.56;;;-3.21;59.10
36192;BME280;22233;42.708;23.360;2023-02-08T06:46:05;97200.84;;;-3.39;60.07
36192;BME280;22233;42.708;23.360;2023-02-08T06:48:33;97217.09;;;-3.04;59.98
36192;BME280;22233;42.708;23.360;2023-02-08T06:50:59;97218.00;;;-3.27;58.99
36192;BME280;22233;42.708;23.360;2023-02-08T06:53:24;97222.69;;;-3.14;58.67
36192;BME280;22233;42.708;23.360;2023-02-08T06:55:50;97223.75;;;-3.38;59.47
36192;BME280;22233;42.708;23.360;2023-02-08T06:58:16;97209.75;;;-3.32;59.44
36192;BME280;22233;42.708;23.360;2023-02-08T07:00:42;97213.81;;;-3.44;59.63
36192;BME280;22233;42.708;23.360;2023-02-08T07:03:09;97227.41;;;-3.39;59.70
36192;BME280;22233;42.708;23.360;2023-02-08T07:05:35;97233.28;;;-3.44;60.55
36192;BME280;22233;42.708;23.360;2023-02-08T07:08:01;97230.41;;;-3.42;59.92
36192;BME280;22233;42.708;23.360;2023-02-08T07:10:26;97223.41;;;-3.20;59.67
36192;BME280;22233;42.708;23.360;2023-02-08T07:12:52;97236.03;;;-3.22;59.65
36192;BME280;22233;42.708;23.360;2023-02-08T07:15:17;97246.44;;;-2.97;60.13
36192;BME280;22233;42.708;23.360;2023-02-08T07:17:42;97237.28;;;-3.10;60.21
36192;BME280;22233;42.708;23.360;2023-02-08T07:20:08;97248.94;;;-2.81;59.31
36192;BME280;22233;42.708;23.360;2023-02-08T07:22:36;97239.13;;;-2.95;59.27
36192;BME280;22233;42.708;23.360;2023-02-08T07:25:01;97247.75;;;-2.93;59.70
36192;BME280;22233;42.708;23.360;2023-02-08T07:27:26;97260.66;;;-3.05;60.16
36192;BME280;22233;42.708;23.360;2023-02-08T07:29:52;97254.59;;;-2.99;60.31
36192;BME280;22233;42.708;23.360;2023-02-08T07:32:17;97255.34;;;-3.05;59.95
36192;BME280;22233;42.708;23.360;2023-02-08T07:34:43;97271.22;;;-2.97;59.68
36192;BME280;22233;42.708;23.360;2023-02-08T07:37:09;97269.66;;;-2.76;59.91
36192;BME280;22233;42.708;23.360;2023-02-08T07:39:35;97269.13;;;-2.57;59.13
36192;BME280;22233;42.708;23.360;2023-02-08T07:42:00;97272.69;;;-2.79;60.31
36192;BME280;22233;42.708;23.360;2023-02-08T07:44:25;97265.28;;;-3.22;61.22
36192;BME280;22233;42.708;23.360;2023-02-08T07:46:51;97266.91;;;-2.68;60.41
36192;BME280;22233;42.708;23.360;2023-02-08T07:49:16;97265.00;;;-2.59;59.80
36192;BME280;22233;42.708;23.360;2023-02-08T07:51:42;97261.31;;;-2.73;59.64
36192;BME280;22233;42.708;23.360;2023-02-08T07:54:07;97260.97;;;-2.55;59.06
36192;BME280;22233;42.708;23.360;2023-02-08T07:56:32;97260.50;;;-2.59;58.95
36192;BME280;22233;42.708;23.360;2023-02-08T07:58:58;97239.94;;;-2.95;61.06
36192;BME280;22233;42.708;23.360;2023-02-08T08:01:23;97234.63;;;-2.65;60.55
36192;BME280;22233;42.708;23.360;2023-02-08T08:03:50;97248.00;;;-2.58;60.43
36192;BME280;22233;42.708;23.360;2023-02-08T08:06:17;97257.69;;;-2.21;58.19
36192;BME280;22233;42.708;23.360;2023-02-08T08:08:43;97249.19;;;-2.46;58.01
36192;BME280;22233;42.708;23.360;2023-02-08T08:11:14;97237.94;;;-2.63;57.28
36192;BME280;22233;42.708;23.360;2023-02-08T08:13:40;97244.78;;;-2.98;59.37
36192;BME280;22233;42.708;23.360;2023-02-08T08:16:06;97263.34;;;-2.75;58.52
36192;BME280;22233;42.708;23.360;2023-02-08T08:18:31;97263.03;;;-2.66;58.95
36192;BME280;22233;42.708;23.360;2023-02-08T08:20:56;97255.84;;;-2.21;57.66
36192;BME280;22233;42.708;23.360;2023-02-08T08:23:22;97259.22;;;-2.12;57.76
36192;BME280;22233;42.708;23.360;2023-02-08T08:25:48;97252.38;;;-1.99;57.54
36192;BME280;22233;42.708;23.360;2023-02-08T08:28:14;97264.19;;;-2.24;57.55
36192;BME280;22233;42.708;23.360;2023-02-08T08:30:43;97272.09;;;-1.79;57.59
36192;BME280;22233;42.708;23.360;2023-02-08T08:33:09;97267.34;;;-1.62;56.07
36192;BME280;22233;42.708;23.360;2023-02-08T08:35:34;97251.16;;;-1.82;56.75
36192;BME280;22233;42.708;23.360;2023-02-08T08:37:59;97242.63;;;-1.28;55.20
36192;BME280;22233;42.708;23.360;2023-02-08T08:40:25;97224.25;;;-2.09;56.34
36192;BME280;22233;42.708;23.360;2023-02-08T08:42:50;97261.75;;;-1.67;55.56
36192;BME280;22233;42.708;23.360;2023-02-08T08:45:16;97270.03;;;-1.12;55.55
36192;BME280;22233;42.708;23.360;2023-02-08T08:47:41;97267.41;;;-0.77;54.74
36192;BME280;22233;42.708;23.360;2023-02-08T08:50:07;97268.53;;;-0.58;53.79
36192;BME280;22233;42.708;23.360;2023-02-08T08:52:32;97260.84;;;-0.75;54.21
36192;BME280;22233;42.708;23.360;2023-02-08T08:54:58;97258.13;;;-1.59;54.98
36192;BME280;22233;42.708;23.360;2023-02-08T08:57:23;97255.47;;;-1.59;56.49
36192;BME280;22233;42.708;23.360;2023-02-08T08:59:48;97271.22;;;-0.87;54.60
36192;BME280;22233;42.708;23.360;2023-02-08T09:02:14;97268.38;;;-0.85;53.46
36192;BME280;22233;42.708;23.360;2023-02-08T09:04:39;97279.69;;;-1.11;53.64
36192;BME280;22233;42.708;23.360;2023-02-08T09:07:06;97282.78;;;-1.08;54.26
36192;BME280;22233;42.708;23.360;2023-02-08T09:09:32;97278.53;;;-0.74;53.70
36192;BME280;22233;42.708;23.360;2023-02-08T09:11:58;97284.19;;;-0.55;53.03
36192;BME280;22233;42.708;23.360;2023-02-08T09:14:23;97269.91;;;-0.34;52.69
36192;BME280;22233;42.708;23.360;2023-02-08T09:16:49;97270.53;;;-0.67;52.12
36192;BME280;22233;42.708;23.360;2023-02-08T09:19:15;97286.94;;;-0.42;52.64
36192;BME280;22233;42.708;23.360;2023-02-08T09:21:40;97269.78;;;-0.19;51.72
36192;BME280;22233;42.708;23.360;2023-02-08T09:24:06;97290.81;;;-0.03;50.73
36192;BME280;22233;42.708;23.360;2023-02-08T09:26:31;97292.72;;;0.16;51.12
36192;BME280;22233;42.708;23.360;2023-02-08T09:28:58;97279.94;;;-0.36;52.44
36192;BME280;22233;42.708;23.360;2023-02-08T09:31:26;97289.63;;;0.13;51.60
36192;BME280;22233;42.708;23.360;2023-02-08T09:33:54;97291.94;;;0.36;50.46
36192;BME280;22233;42.708;23.360;2023-02-08T09:36:21;97298.00;;;-0.04;51.69
36192;BME280;22233;42.708;23.360;2023-02-08T09:38:48;97286.91;;;-0.01;51.83
36192;BME280;22233;42.708;23.360;2023-02-08T09:46:29;97272.38;;;-0.33;51.80
36192;BME280;22233;42.708;23.360;2023-02-08T09:49:00;97270.56;;;0.36;51.45
36192;BME280;22233;42.708;23.360;2023-02-08T09:51:34;97271.16;;;0.31;51.18
36192;BME280;22233;42.708;23.360;2023-02-08T09:56:51;97251.69;;;0.77;49.94
36192;BME280;22233;42.708;23.360;2023-02-08T09:59:27;97264.66;;;1.07;49.41
36192;BME280;22233;42.708;23.360;2023-02-08T10:02:25;97264.84;;;1.39;49.96
36192;BME280;22233;42.708;23.360;2023-02-08T10:05:06;97272.69;;;1.14;48.06
36192;BME280;22233;42.708;23.360;2023-02-08T10:07:34;97265.91;;;1.11;47.48
36192;BME280;22233;42.708;23.360;2023-02-08T10:10:06;97258.06;;;1.10;47.15
36192;BME280;22233;42.708;23.360;2023-02-08T10:20:49;97259.72;;;0.97;46.77
36192;BME280;22233;42.708;23.360;2023-02-08T10:26:22;97260.34;;;0.93;47.00
36192;BME280;22233;42.708;23.360;2023-02-08T10:36:49;97258.03;;;0.36;47.81
36192;BME280;22233;42.708;23.360;2023-02-08T10:39:26;97263.78;;;0.40;47.95
36192;BME280;22233;42.708;23.360;2023-02-08T10:41:53;97269.78;;;0.55;48.03
36192;BME280;22233;42.708;23.360;2023-02-08T10:47:08;97271.41;;;0.43;49.05
36192;BME280;22233;42.708;23.360;2023-02-08T10:49:57;97271.03;;;0.59;49.33
36192;BME280;22233;42.708;23.360;2023-02-08T10:52:26;97262.97;;;0.33;49.79
36192;BME280;22233;42.708;23.360;2023-02-08T10:54:51;97270.78;;;0.48;50.18
36192;BME280;22233;42.708;23.360;2023-02-08T10:57:23;97262.75;;;0.34;51.01
36192;BME280;22233;42.708;23.360;2023-02-08T11:00:05;97277.75;;;0.35;50.59
36192;BME280;22233;42.708;23.360;2023-02-08T11:02:38;97263.34;;;0.16;50.92
36192;BME280;22233;42.708;23.360;2023-02-08T11:07:33;97286.53;;;0.16;50.72
36192;BME280;22233;42.708;23.360;2023-02-08T11:15:45;97281.09;;;-0.11;52.52
36192;BME280;22233;42.708;23.360;2023-02-08T11:20:55;97272.78;;;-0.36;53.26
36192;BME280;22233;42.708;23.360;2023-02-08T11:25:51;97286.63;;;-0.19;51.64
36192;BME280;22233;42.708;23.360;2023-02-08T11:28:22;97279.03;;;-0.22;51.87
36192;BME280;22233;42.708;23.360;2023-02-08T11:31:00;97272.47;;;-0.13;52.01
36192;BME280;22233;42.708;23.360;2023-02-08T11:33:26;97289.09;;;-0.24;51.78
36192;BME280;22233;42.708;23.360;2023-02-08T11:36:06;97287.06;;;-0.15;51.65
36192;BME280;22233;42.708;23.360;2023-02-08T11:38:34;97284.38;;;-0.22;52.85
36192;BME280;22233;42.708;23.360;2023-02-08T11:41:03;97280.91;;;-0.09;52.78
36192;BME280;22233;42.708;23.360;2023-02-08T11:43:32;97292.09;;;0.14;51.66
36192;BME280;22233;42.708;23.360;2023-02-08T11:46:00;97283.84;;;0.09;52.16
36192;BME280;22233;42.708;23.360;2023-02-08T11:51:00;97293.03;;;0.55;50.84
36192;BME280;22233;42.708;23.360;2023-02-08T11:53:33;97279.94;;;0.12;50.79
36192;BME280;22233;42.708;23.360;2023-02-08T11:56:02;97290.75;;;0.52;50.25
36192;BME280;22233;42.708;23.360;2023-02-08T11:58:27;97281.81;;;0.11;51.08
36192;BME280;22233;42.708;23.360;2023-02-08T12:01:05;97282.06;;;0.30;49.74
36192;BME280;22233;42.708;23.360;2023-02-08T12:03:38;97288.06;;;0.38;51.09
36192;BME280;22233;42.708;23.360;2023-02-08T12:09:02;97281.09;;;-0.11;49.93
36192;BME280;22233;42.708;23.360;2023-02-08T12:11:41;97290.81;;;0.04;50.48
36192;BME280;22233;42.708;23.360;2023-02-08T12:19:58;97278.63;;;0.43;47.89
36192;BME280;22233;42.708;23.360;2023-02-08T12:22:28;97259.06;;;0.42;49.40
36192;BME280;22233;42.708;23.360;2023-02-08T12:30:33;97279.69;;;1.22;46.56
36192;BME280;22233;42.708;23.360;2023-02-08T12:41:39;97237.06;;;1.00;45.32
36192;BME280;22233;42.708;23.360;2023-02-08T12:57:17;97274.94;;;1.24;43.59
36192;BME280;22233;42.708;23.360;2023-02-08T12:59:48;97275.78;;;1.11;43.27
36192;BME280;22233;42.708;23.360;2023-02-08T13:02:34;97276.41;;;1.13;44.29
36192;BME280;22233;42.708;23.360;2023-02-08T13:05:15;97275.56;;;0.99;44.09
36192;BME280;22233;42.708;23.360;2023-02-08T13:07:43;97262.19;;;0.99;43.83
36192;BME280;22233;42.708;23.360;2023-02-08T13:10:26;97293.47;;;0.92;43.40
36192;BME280;22233;42.708;23.360;2023-02-08T13:12:57;97296.56;;;0.69;44.47
36192;BME280;22233;42.708;23.360;2023-02-08T13:15:35;97281.72;;;0.66;44.14
36192;BME280;22233;42.708;23.360;2023-02-08T13:18:13;97302.94;;;0.88;45.45
36192;BME280;22233;42.708;23.360;2023-02-08T13:25:42;97295.34;;;1.11;44.87
36192;BME280;22233;42.708;23.360;2023-02-08T13:28:17;97304.41;;;0.97;45.32
36192;BME280;22233;42.708;23.360;2023-02-08T13:30:45;97311.38;;;0.71;45.90
36192;BME280;22233;42.708;23.360;2023-02-08T13:33:23;97312.56;;;0.55;46.30
36192;BME280;22233;42.708;23.360;2023-02-08T13:35:51;97298.31;;;0.28;46.25
36192;BME280;22233;42.708;23.360;2023-02-08T13:38:26;97314.56;;;0.27;47.00
36192;BME280;22233;42.708;23.360;2023-02-08T13:41:14;97312.81;;;-0.01;47.72
36192;BME280;22233;42.708;23.360;2023-02-08T13:46:15;97323.91;;;0.03;47.83
36192;BME280;22233;42.708;23.360;2023-02-08T13:48:53;97329.44;;;-0.06;48.25
36192;BME280;22233;42.708;23.360;2023-02-08T13:56:44;97320.50;;;-0.26;47.80
36192;BME280;22233;42.708;23.360;2023-02-08T13:59:25;97336.13;;;-0.58;48.97
36192;BME280;22233;42.708;23.360;2023-02-08T14:04:45;97323.25;;;-0.48;49.41
36192;BME280;22233;42.708;23.360;2023-02-08T14:07:20;97323.78;;;-0.59;49.98
36192;BME280;22233;42.708;23.360;2023-02-08T14:15:44;97324.31;;;-0.42;50.27
36192;BME280;22233;42.708;23.360;2023-02-08T14:18:23;97309.75;;;-0.33;49.77
36192;BME280;22233;42.708;23.360;2023-02-08T14:21:00;97330.34;;;-0.27;50.95
36192;BME280;22233;42.708;23.360;2023-02-08T14:23:27;97327.81;;;-0.42;51.11
36192;BME280;22233;42.708;23.360;2023-02-08T14:25:58;97326.06;;;-0.21;50.81
36192;BME280;22233;42.708;23.360;2023-02-08T14:28:36;97318.88;;;-0.21;50.36
36192;BME280;22233;42.708;23.360;2023-02-08T14:31:07;97319.97;;;-0.43;50.75
36192;BME280;22233;42.708;23.360;2023-02-08T14:33:39;97323.91;;;-0.39;50.02
36192;BME280;22233;42.708;23.360;2023-02-08T14:36:18;97311.97;;;-0.43;50.77
36192;BME280;22233;42.708;23.360;2023-02-08T14:38:51;97333.16;;;-0.42;50.34
36192;BME280;22233;42.708;23.360;2023-02-08T14:50:03;97331.94;;;-0.67;53.03
36192;BME280;22233;42.708;23.360;2023-02-08T14:52:32;97313.94;;;-0.87;53.69
36192;BME280;22233;42.708;23.360;2023-02-08T14:55:02;97334.56;;;-0.74;52.88
36192;BME280;22233;42.708;23.360;2023-02-08T14:57:31;97336.72;;;-1.12;53.40
36192;BME280;22233;42.708;23.360;2023-02-08T15:00:00;97337.72;;;-0.92;53.25
36192;BME280;22233;42.708;23.360;2023-02-08T15:02:27;97321.94;;;-0.87;52.00
36192;BME280;22233;42.708;23.360;2023-02-08T15:05:00;97328.75;;;-0.84;52.08
36192;BME280;22233;42.708;23.360;2023-02-08T15:10:28;97342.09;;;-0.56;51.07
36192;BME280;22233;42.708;23.360;2023-02-08T15:12:59;97338.53;;;-0.63;51.41
36192;BME280;22233;42.708;23.360;2023-02-08T15:17:57;97344.97;;;-1.07;51.77
36192;BME280;22233;42.708;23.360;2023-02-08T15:20:25;97347.59;;;-0.86;50.16
36192;BME280;22233;42.708;23.360;2023-02-08T15:25:34;97348.63;;;-0.58;50.76
36192;BME280;22233;42.708;23.360;2023-02-08T15:28:02;97337.88;;;-0.72;50.29
36192;BME280;22233;42.708;23.360;2023-02-08T15:30:34;97352.00;;;-0.78;50.61
36192;BME280;22233;42.708;23.360;2023-02-08T15:33:02;97350.09;;;-0.56;50.07
36192;BME280;22233;42.708;23.360;2023-02-08T15:35:33;97355.31;;;-0.97;50.46
36192;BME280;22233;42.708;23.360;2023-02-08T15:38:00;97348.84;;;-1.10;50.97
36192;BME280;22233;42.708;23.360;2023-02-08T15:40:32;97355.47;;;-0.77;51.09